Time;durP1;ratioP1;P1;durP2;ratioP2;P2;SDS_P1;SDS_P2;PMS_P1;PMS_P2;Temp;Humidity;BMP_temperature;BMP_pressure;BME280_temperature;BME280_humidity;BME280_pressure;Samples;Min_cycle;Max_cycle;Signal;HPM_P1;HPM_P2
2020/12/05 00:02:10;;;;;;;7.57;3.97;;;;;;;10.44;54.56;99017.72;5002255;28;20041;-59
2020/12/05 00:04:35;;;;;;;6.83;4.17;;;;;;;10.29;55.27;99017.38;5002327;28;20095;-60
2020/12/05 00:07:00;;;;;;;6.90;4.07;;;;;;;10.28;55.53;99021.94;5003912;28;20022;-60
2020/12/05 00:09:26;;;;;;;9.13;4.00;;;;;;;10.31;55.30;99015.28;5001918;28;20035;-60
2020/12/05 00:11:51;;;;;;;7.97;4.00;;;;;;;10.54;54.26;99030.44;5002613;28;20065;-60
2020/12/05 00:14:17;;;;;;;6.93;4.00;;;;;;;10.28;55.24;99037.13;5002821;28;20054;-61
2020/12/05 00:16:42;;;;;;;8.63;4.20;;;;;;;10.40;54.73;99042.44;5007985;28;20041;-60
2020/12/05 00:19:08;;;;;;;11.07;4.30;;;;;;;10.26;55.95;99039.22;5001623;28;20034;-60
2020/12/05 00:21:33;;;;;;;9.53;4.17;;;;;;;10.18;55.79;99049.25;5002185;28;20046;-60
2020/12/05 00:23:59;;;;;;;10.90;4.23;;;;;;;10.51;54.14;99044.28;4985316;28;20144;-60
2020/12/05 00:26:24;;;;;;;6.57;4.20;;;;;;;10.40;54.52;99053.97;5000039;28;20088;-61
2020/12/05 00:28:50;;;;;;;8.10;4.87;;;;;;;10.23;55.25;99047.72;4994217;28;20061;-61
2020/12/05 00:31:16;;;;;;;6.40;4.00;;;;;;;10.46;54.59;99069.06;4993443;28;20072;-61
2020/12/05 00:33:43;;;;;;;7.40;4.07;;;;;;;10.37;54.08;99072.31;4993795;28;20070;-61
2020/12/05 00:36:15;;;;;;;11.70;4.85;;;;;;;10.20;55.03;99067.69;4993214;28;20042;-59
2020/12/05 00:38:40;;;;;;;7.75;4.38;;;;;;;10.33;54.82;99079.97;4993788;28;20035;-61
2020/12/05 00:41:07;;;;;;;11.17;4.50;;;;;;;10.21;55.79;99082.69;4993343;28;20038;-59
2020/12/05 00:43:35;;;;;;;8.70;4.17;;;;;;;10.29;55.27;99082.31;4993594;28;20050;-61
2020/12/05 00:46:05;;;;;;;10.73;4.90;;;;;;;10.19;55.34;99072.25;4976217;28;20302;-60
2020/12/05 00:48:31;;;;;;;10.43;4.53;;;;;;;10.29;55.11;99076.97;4994323;28;20092;-60
2020/12/05 00:50:58;;;;;;;6.78;4.57;;;;;;;10.37;54.81;99094.47;4993747;28;20081;-61
2020/12/05 00:53:24;;;;;;;9.95;4.28;;;;;;;10.18;56.20;99104.53;4993103;28;20049;-60
2020/12/05 00:55:50;;;;;;;12.18;4.70;;;;;;;9.94;56.87;99109.91;4976143;28;20046;-61
2020/12/05 00:58:16;;;;;;;9.93;5.37;;;;;;;10.02;57.27;99125.56;4993123;28;20485;-60
2020/12/05 01:00:42;;;;;;;11.87;5.07;;;;;;;10.14;56.33;99127.41;4993403;28;20042;-61
2020/12/05 01:03:08;;;;;;;11.95;5.57;;;;;;;10.15;56.65;99121.03;4992974;28;20042;-59
2020/12/05 01:05:35;;;;;;;7.95;5.13;;;;;;;10.10;56.47;99116.38;4993275;28;20510;-61
2020/12/05 01:08:05;;;;;;;7.70;4.38;;;;;;;10.05;57.30;99124.28;4993268;28;20448;-61
2020/12/05 01:10:31;;;;;;;9.88;5.18;;;;;;;9.92;57.77;99119.19;4992695;28;20042;-61
2020/12/05 01:12:56;;;;;;;12.00;4.63;;;;;;;9.87;57.44;99131.38;4992753;28;20105;-60
2020/12/05 01:15:22;;;;;;;9.97;4.60;;;;;;;10.17;56.61;99133.13;4975350;28;20038;-60
2020/12/05 01:17:47;;;;;;;13.30;5.37;;;;;;;9.99;56.83;99122.56;4993334;28;20041;-59
2020/12/05 01:20:13;;;;;;;6.33;3.97;;;;;;;9.89;57.46;99131.94;4992654;28;20088;-59
2020/12/05 01:22:38;;;;;;;12.77;5.10;;;;;;;9.92;57.07;99114.66;4992931;28;20049;-61
2020/12/05 01:25:04;;;;;;;12.75;4.07;;;;;;;9.86;56.82;99105.72;4993138;28;20096;-61
2020/12/05 01:27:30;;;;;;;9.60;4.97;;;;;;;10.16;55.81;99112.78;4992606;28;20092;-62
2020/12/05 01:29:55;;;;;;;15.40;4.90;;;;;;;10.04;56.05;99095.97;4992909;28;20049;-61
2020/12/05 01:32:21;;;;;;;6.77;4.37;;;;;;;9.92;56.37;99103.16;4992598;28;20125;-61
2020/12/05 01:34:47;;;;;;;8.33;4.70;;;;;;;10.00;56.67;99100.16;4992885;28;20291;-61
2020/12/05 01:37:12;;;;;;;13.27;5.00;;;;;;;10.35;54.97;99109.16;4992047;28;20053;-61
2020/12/05 01:39:37;;;;;;;13.60;5.10;;;;;;;10.25;55.34;99109.75;4992802;28;20401;-61
2020/12/05 01:42:04;;;;;;;13.90;5.23;;;;;;;10.37;54.64;99107.84;4992977;28;20611;-60
2020/12/05 01:44:31;;;;;;;7.83;4.37;;;;;;;10.21;54.75;99111.28;4992414;28;20042;-60
2020/12/05 01:46:56;;;;;;;;;;;;;;;10.23;55.36;99119.84;4992972;28;20062;-61
2020/12/05 01:49:22;;;;;;;12.87;5.20;;;;;;;10.16;55.27;99120.81;4992311;28;20003;-61
2020/12/05 01:51:48;;;;;;;7.75;4.20;;;;;;;10.08;56.05;99125.69;4992866;28;20073;-61
2020/12/05 01:54:14;;;;;;;9.25;4.47;;;;;;;10.22;55.31;99124.38;4974721;28;20038;-59
2020/12/05 01:56:44;;;;;;;13.13;4.83;;;;;;;10.17;55.76;99122.44;4992879;28;20458;-61
2020/12/05 01:59:10;;;;;;;7.90;5.10;;;;;;;10.09;56.28;99121.97;4975248;28;20283;-59
2020/12/05 02:01:38;;;;;;;8.05;4.57;;;;;;;10.20;55.35;99107.78;4975046;28;20133;-61
2020/12/05 02:04:03;;;;;;;10.75;4.35;;;;;;;10.45;54.01;99133.41;4975396;28;20112;-60
2020/12/05 02:06:47;;;;;;;9.67;4.70;;;;;;;10.45;53.29;99139.59;4991864;28;20421;-61
2020/12/05 02:09:25;;;;;;;10.90;4.50;;;;;;;10.17;54.99;99122.44;4992153;28;20366;-59
2020/12/05 02:12:12;;;;;;;10.80;4.25;;;;;;;10.14;55.61;99132.75;4992513;28;20060;-60
2020/12/05 02:14:39;;;;;;;11.48;4.50;;;;;;;10.08;55.95;99145.19;4974940;28;20046;-60
2020/12/05 02:17:06;;;;;;;12.75;4.72;;;;;;;10.04;56.00;99144.03;4992530;28;20108;-60
2020/12/05 02:19:52;;;;;;;9.02;4.45;;;;;;;10.00;55.90;99142.88;4991731;28;20622;-61
2020/12/05 02:22:30;;;;;;;7.35;4.32;;;;;;;9.90;56.53;99141.59;4991829;28;20062;-60
2020/12/05 02:24:59;;;;;;;10.63;5.20;;;;;;;9.87;56.59;99130.56;4992386;28;20046;-62
2020/12/05 02:27:28;;;;;;;8.23;4.93;;;;;;;9.72;57.10;99139.06;4998030;28;20476;-60
2020/12/05 02:29:54;;;;;;;12.35;5.03;;;;;;;9.94;55.70;99147.28;4998015;28;20425;-61
2020/12/05 02:32:19;;;;;;;11.57;4.77;;;;;;;9.93;55.59;99131.50;4991692;28;20038;-61
2020/12/05 02:34:45;;;;;;;8.47;5.40;;;;;;;9.74;56.34;99136.97;4992586;28;20401;-61
2020/12/05 02:37:13;;;;;;;9.47;4.40;;;;;;;9.71;56.62;99142.78;4992481;28;20046;-60
2020/12/05 02:39:43;;;;;;;10.52;5.03;;;;;;;9.64;57.24;99134.88;4992611;28;20054;-60
2020/12/05 02:42:13;;;;;;;8.57;4.78;;;;;;;9.74;57.41;99145.78;4992408;28;20046;-60
2020/12/05 02:44:50;;;;;;;8.20;5.03;;;;;;;9.87;56.89;99143.94;4992423;28;20493;-59
2020/12/05 02:47:16;;;;;;;13.93;5.60;;;;;;;9.90;56.43;99136.25;4991533;28;20155;-60
2020/12/05 02:49:43;;;;;;;12.63;5.57;;;;;;;10.02;56.54;99148.78;4995929;28;20045;-60
2020/12/05 02:52:09;;;;;;;9.02;4.97;;;;;;;10.04;55.25;99139.53;4994670;28;20482;-61
2020/12/05 02:54:35;;;;;;;14.43;5.45;;;;;;;10.12;54.60;99151.69;4993776;28;20042;-61
2020/12/05 02:57:00;;;;;;;7.03;4.17;;;;;;;9.83;55.59;99145.44;4995944;28;20045;-60
2020/12/05 02:59:27;;;;;;;10.55;5.57;;;;;;;9.77;56.22;99141.84;4996218;28;20046;-60
2020/12/05 03:01:53;;;;;;;12.73;5.10;;;;;;;9.93;55.53;99156.34;4996792;28;20118;-60
2020/12/05 03:04:18;;;;;;;14.00;5.00;;;;;;;9.78;55.62;99155.97;4995269;28;20394;-60
2020/12/05 03:06:43;;;;;;;8.67;5.43;;;;;;;9.84;55.65;99152.41;4995608;28;20435;-60
2020/12/05 03:09:09;;;;;;;15.53;5.30;;;;;;;9.67;55.82;99141.59;4994602;28;20023;-60
2020/12/05 03:11:34;;;;;;;12.67;6.20;;;;;;;9.60;57.07;99150.53;5000250;28;20037;-61
2020/12/05 03:14:00;;;;;;;8.60;5.17;;;;;;;9.87;55.60;99143.94;5013139;28;20041;-61
2020/12/05 03:16:25;;;;;;;8.30;4.87;;;;;;;9.95;54.50;99140.91;5000256;28;20031;-60
2020/12/05 03:18:51;;;;;;;16.27;6.00;;;;;;;9.96;54.71;99147.88;5004480;28;20033;-61
2020/12/05 03:21:17;;;;;;;9.93;5.35;;;;;;;9.95;55.10;99135.56;5008491;28;20504;-60
2020/12/05 03:23:45;;;;;;;9.05;5.35;;;;;;;9.89;55.96;99144.50;4995388;28;20030;-60
2020/12/05 03:26:14;;;;;;;12.02;5.35;;;;;;;9.89;55.36;99147.97;4995360;28;20034;-60
2020/12/05 03:28:40;;;;;;;9.98;4.82;;;;;;;9.90;56.12;99149.59;4994640;28;20077;-60
2020/12/05 03:31:07;;;;;;;9.32;5.65;;;;;;;9.95;55.08;99150.78;4995266;28;20043;-60
2020/12/05 03:33:35;;;;;;;7.90;4.80;;;;;;;9.82;56.12;99152.63;4994418;28;20134;-60
2020/12/05 03:36:01;;;;;;;10.63;5.60;;;;;;;9.81;55.92;99153.66;5004332;28;20042;-59
2020/12/05 03:38:26;;;;;;;11.13;5.77;;;;;;;9.88;56.88;99157.03;5014257;28;20042;-61
2020/12/05 03:40:52;;;;;;;19.10;5.63;;;;;;;9.80;56.03;99141.38;5014938;28;20037;-60
2020/12/05 03:43:17;;;;;;;10.60;5.53;;;;;;;9.94;55.17;99138.47;4993083;28;20038;-61
2020/12/05 03:45:43;;;;;;;9.83;5.13;;;;;;;10.17;55.15;99142.97;4995029;28;20121;-61
2020/12/05 03:48:12;;;;;;;9.83;4.93;;;;;;;10.30;53.29;99137.38;4997975;28;20038;-61
2020/12/05 03:50:38;;;;;;;11.35;5.43;;;;;;;10.11;54.04;99128.69;5011427;28;20128;-60
2020/12/05 03:53:03;;;;;;;7.93;5.00;;;;;;;10.05;54.14;99118.94;4994991;28;20034;-61
2020/12/05 03:55:29;;;;;;;9.87;4.87;;;;;;;10.02;54.55;99136.25;4994063;28;20045;-59
2020/12/05 03:57:54;;;;;;;8.03;4.87;;;;;;;10.03;53.87;99132.56;5010429;28;20042;-60
2020/12/05 04:00:20;;;;;;;10.53;5.73;;;;;;;9.88;54.89;99126.88;5012539;28;20034;-60
2020/12/05 04:02:45;;;;;;;10.13;4.87;;;;;;;9.88;55.30;99132.19;5014297;28;20045;-61
2020/12/05 04:05:11;;;;;;;10.77;5.77;;;;;;;9.69;55.41;99131.50;5014252;28;20544;-61
2020/12/05 04:07:36;;;;;;;11.60;5.53;;;;;;;9.75;55.14;99147.41;4995747;28;20555;-60
2020/12/05 04:10:03;;;;;;;9.60;5.77;;;;;;;9.94;54.32;99152.63;5014077;28;20520;-61
2020/12/05 04:12:28;;;;;;;9.23;5.35;;;;;;;9.85;54.58;99156.69;4995589;28;20497;-60
2020/12/05 04:14:53;;;;;;;10.33;5.20;;;;;;;9.94;53.94;99154.50;4995966;28;20076;-59
2020/12/05 04:17:19;;;;;;;11.27;5.47;;;;;;;9.84;55.23;99171.91;4993825;28;20045;-59
2020/12/05 04:19:47;;;;;;;8.87;5.37;;;;;;;9.93;54.53;99174.25;4994368;28;20429;-60
2020/12/05 04:22:13;;;;;;;12.18;6.70;;;;;;;9.83;55.00;99180.16;4993882;28;20085;-61
2020/12/05 04:24:38;;;;;;;12.00;6.30;;;;;;;9.88;54.79;99185.59;4993720;28;20501;-61
2020/12/05 04:27:04;;;;;;;12.40;4.40;;;;;;;9.89;54.55;99174.69;4993001;28;20129;-60
2020/12/05 04:29:29;;;;;;;16.03;6.67;;;;;;;9.80;55.59;99202.78;4993526;28;20069;-61
2020/12/05 04:31:55;;;;;;;11.83;6.00;;;;;;;9.93;54.72;99199.06;4994139;28;20470;-61
2020/12/05 04:34:20;;;;;;;9.90;4.77;;;;;;;10.00;54.22;99202.44;4993521;28;20031;-59
2020/12/05 04:36:46;;;;;;;9.63;6.27;;;;;;;10.00;55.21;99201.63;4994127;28;20176;-61
2020/12/05 04:39:11;;;;;;;9.83;5.63;;;;;;;9.90;54.71;99203.00;4994107;28;20615;-61
2020/12/05 04:41:36;;;;;;;13.83;6.53;;;;;;;9.50;57.01;99197.50;4993036;28;20044;-60
2020/12/05 04:44:02;;;;;;;13.80;5.57;;;;;;;9.46;57.23;99194.50;4993811;28;20038;-60
2020/12/05 04:46:30;;;;;;;11.65;6.13;;;;;;;9.49;57.99;99207.38;4991865;28;20034;-60
2020/12/05 04:48:57;;;;;;;13.27;6.50;;;;;;;9.54;57.28;99194.16;4993718;28;20040;-61
2020/12/05 04:51:26;;;;;;;16.23;6.03;;;;;;;9.47;57.59;99198.78;4992896;28;20034;-60
2020/12/05 04:53:51;;;;;;;10.43;5.63;;;;;;;9.53;56.89;99205.88;4993613;28;20061;-61
2020/12/05 04:56:17;;;;;;;9.90;5.50;;;;;;;9.70;55.57;99205.22;4993302;28;20034;-61
2020/12/05 04:58:47;;;;;;;11.30;5.33;;;;;;;9.65;56.52;99207.72;4992770;28;20041;-60
2020/12/05 05:01:17;;;;;;;10.32;6.10;;;;;;;9.42;57.60;99206.63;4993884;28;20034;-60
2020/12/05 05:03:44;;;;;;;8.02;5.93;;;;;;;9.38;57.91;99200.13;4992676;28;20482;-61
2020/12/05 05:06:20;;;;;;;8.32;5.63;;;;;;;9.31;57.83;99200.22;4976164;28;20106;-60
2020/12/05 05:08:46;;;;;;;10.95;7.22;;;;;;;9.30;58.10;99204.75;4993549;28;20045;-60
2020/12/05 05:11:14;;;;;;;12.10;5.95;;;;;;;9.50;56.97;99211.66;4992967;28;20034;-59
2020/12/05 05:13:48;;;;;;;10.50;6.30;;;;;;;9.38;57.42;99218.81;5012319;28;20149;-60
2020/12/05 05:16:15;;;;;;;12.50;6.32;;;;;;;9.51;56.73;99217.81;5012895;28;20096;-61
2020/12/05 05:18:40;;;;;;;;;;;;;;;9.28;57.28;99222.84;4995139;28;20099;-60
2020/12/05 05:21:06;;;;;;;14.37;7.03;;;;;;;9.28;57.44;99222.84;4995672;28;19921;-61
2020/12/05 05:23:31;;;;;;;13.17;6.93;;;;;;;9.35;57.02;99214.75;5012557;28;20051;-60
2020/12/05 05:25:58;;;;;;;10.83;6.53;;;;;;;9.24;57.38;99215.50;4994337;28;20412;-60
2020/12/05 05:28:38;;;;;;;11.32;6.97;;;;;;;9.37;56.78;99214.50;4995028;28;20110;-58
2020/12/05 05:31:13;;;;;;;15.68;7.70;;;;;;;9.58;55.87;99235.34;4997720;28;20042;-59
2020/12/05 05:33:39;;;;;;;14.02;7.35;;;;;;;9.56;55.52;99234.75;4995084;28;20038;-61
2020/12/05 05:36:15;;;;;;;14.13;6.38;;;;;;;9.45;56.78;99243.53;4996517;28;20490;-60
2020/12/05 05:38:43;;;;;;;12.73;6.95;;;;;;;9.27;57.73;99242.56;4992973;28;20042;-61
2020/12/05 05:41:17;;;;;;;11.60;6.55;;;;;;;9.29;57.70;99235.16;4992984;28;20038;-60
2020/12/05 05:43:56;;;;;;;12.45;6.93;;;;;;;9.34;57.67;99239.78;4992164;28;20113;-60
2020/12/05 05:46:30;;;;;;;11.85;7.22;;;;;;;9.33;58.06;99238.16;5007022;28;20060;-60
2020/12/05 05:48:57;;;;;;;15.60;7.38;;;;;;;9.33;58.57;99219.47;5012643;28;20087;-60
2020/12/05 05:51:45;;;;;;;14.83;7.77;;;;;;;9.41;57.85;99221.03;5012618;28;20065;-61
2020/12/05 05:54:15;;;;;;;12.27;7.20;;;;;;;9.42;56.93;99233.31;5012574;28;20042;-60
2020/12/05 05:57:11;;;;;;;11.38;7.50;;;;;;;9.38;56.50;99242.81;5011841;28;20042;-62
2020/12/05 05:59:39;;;;;;;13.45;7.43;;;;;;;9.50;55.97;99249.03;4979945;28;20054;-60
2020/12/05 06:02:09;;;;;;;12.88;7.90;;;;;;;9.25;58.53;99249.97;4992400;28;20046;-61
2020/12/05 06:04:41;;;;;;;15.10;8.00;;;;;;;9.58;56.30;99243.34;4994973;28;20099;-59
2020/12/05 06:07:14;;;;;;;12.02;7.93;;;;;;;9.63;55.70;99242.69;5004339;28;20071;-60
2020/12/05 06:09:54;;;;;;;16.48;7.93;;;;;;;9.35;57.46;99243.28;4999703;28;20121;-60
2020/12/05 06:12:26;;;;;;;14.95;8.52;;;;;;;9.55;56.93;99253.66;5008551;28;20031;-60
2020/12/05 06:14:53;;;;;;;19.42;8.88;;;;;;;9.49;57.25;99257.25;4993127;28;20046;-60
2020/12/05 06:17:22;;;;;;;14.40;8.60;;;;;;;9.57;58.00;99246.25;4992594;28;20532;-60
2020/12/05 06:19:50;;;;;;;15.70;8.13;;;;;;;9.60;56.79;99251.94;4990831;28;20042;-61
2020/12/05 06:22:24;;;;;;;11.80;7.88;;;;;;;9.54;58.20;99252.88;4959522;28;20378;-61
2020/12/05 06:25:11;;;;;;;16.23;8.27;;;;;;;9.51;58.42;99258.66;4995936;28;20049;-60
2020/12/05 06:27:41;;;;;;;13.95;8.32;;;;;;;9.50;57.09;99245.53;4995794;28;20068;-61
2020/12/05 06:30:07;;;;;;;15.80;8.60;;;;;;;9.55;57.15;99265.16;4996763;28;20097;-60
2020/12/05 06:32:38;;;;;;;17.52;8.75;;;;;;;9.04;62.24;99276.09;4996129;28;20030;-60
2020/12/05 06:35:34;;;;;;;14.63;9.23;;;;;;;9.14;60.55;99264.91;4996202;28;20056;-60
2020/12/05 06:38:01;;;;;;;17.45;8.93;;;;;;;8.43;65.65;99269.75;4983712;28;20121;-60
2020/12/05 06:40:27;;;;;;;19.63;10.15;;;;;;;8.72;63.96;99278.88;4994941;28;20386;-58
2020/12/05 06:42:55;;;;;;;17.02;9.82;;;;;;;8.61;66.31;99287.63;4996206;28;20045;-60
2020/12/05 06:45:27;;;;;;;13.73;8.85;;;;;;;9.15;62.91;99292.38;4978443;28;20144;-60
2020/12/05 06:47:53;;;;;;;18.15;9.32;;;;;;;8.92;64.08;99287.72;4999582;28;20042;-60
2020/12/05 06:50:38;;;;;;;14.80;8.60;;;;;;;8.49;66.96;99292.84;4995706;28;20359;-60
2020/12/05 06:53:23;;;;;;;19.83;8.70;;;;;;;9.17;64.38;99298.28;4995912;28;20031;-60
2020/12/05 06:55:51;;;;;;;15.10;9.07;;;;;;;9.38;62.46;99297.00;4995029;28;20050;-60
2020/12/05 06:58:27;;;;;;;15.50;8.68;;;;;;;9.66;59.59;99305.44;4978104;28;20038;-60
2020/12/05 07:00:54;;;;;;;14.88;8.45;;;;;;;9.89;58.21;99326.88;4995868;28;20126;-62
2020/12/05 07:03:25;;;;;;;21.55;9.35;;;;;;;10.04;57.04;99317.63;4995582;28;20105;-60
2020/12/05 07:05:52;;;;;;;17.88;9.18;;;;;;;9.83;58.00;99325.13;4994818;28;20049;-60
2020/12/05 07:08:31;;;;;;;15.60;8.02;;;;;;;9.91;57.94;99340.03;4997071;28;20156;-61
2020/12/05 07:11:04;;;;;;;14.15;8.65;;;;;;;9.87;58.55;99345.00;4996984;28;20038;-61
2020/12/05 07:13:40;;;;;;;15.98;8.50;;;;;;;9.94;57.66;99344.09;4995852;28;20047;-60
2020/12/05 07:16:21;;;;;;;16.35;8.05;;;;;;;9.56;59.67;99343.34;4978681;28;20354;-61
2020/12/05 07:18:52;;;;;;;14.95;7.97;;;;;;;9.31;60.06;99369.13;4994926;28;20060;-60
2020/12/05 07:21:18;;;;;;;17.40;8.85;;;;;;;9.19;62.32;99378.91;4978139;28;20045;-60
2020/12/05 07:23:44;;;;;;;13.27;8.50;;;;;;;8.92;63.85;99368.50;4994608;28;20437;-60
2020/12/05 07:26:11;;;;;;;12.48;7.80;;;;;;;9.02;63.66;99368.00;4995252;28;20038;-60
2020/12/05 07:28:37;;;;;;;13.88;8.88;;;;;;;9.57;61.30;99377.00;5002771;28;20394;-60
2020/12/05 07:31:03;;;;;;;18.77;9.50;;;;;;;9.45;60.87;99395.63;4979444;28;20035;-61
2020/12/05 07:33:29;;;;;;;15.73;8.30;;;;;;;9.64;60.38;99388.44;4978447;28;20041;-60
2020/12/05 07:35:57;;;;;;;16.20;8.60;;;;;;;9.50;61.25;99394.97;4966705;28;20038;-60
2020/12/05 07:38:22;;;;;;;14.82;8.63;;;;;;;9.02;65.12;99403.50;4988129;28;20046;-60
2020/12/05 07:40:48;;;;;;;17.03;9.40;;;;;;;9.09;64.98;99408.75;5001099;28;20088;-61
2020/12/05 07:43:21;;;;;;;14.47;8.33;;;;;;;9.08;64.52;99407.13;4996046;28;20508;-60
2020/12/05 07:45:48;;;;;;;17.27;9.07;;;;;;;8.75;67.76;99422.38;4993969;28;20268;-60
2020/12/05 07:48:16;;;;;;;21.02;9.57;;;;;;;9.12;65.35;99410.16;4995229;28;20042;-61
2020/12/05 07:50:42;;;;;;;14.57;8.82;;;;;;;9.12;65.69;99421.66;4992857;28;20375;-60
2020/12/05 07:53:25;;;;;;;20.15;8.80;;;;;;;9.40;63.49;99425.69;4995082;28;20109;-61
2020/12/05 07:55:51;;;;;;;18.67;10.02;;;;;;;9.64;62.88;99447.16;4993901;28;20038;-60
2020/12/05 07:58:17;;;;;;;15.75;8.63;;;;;;;9.68;62.82;99450.19;4994960;28;20205;-60
2020/12/05 08:00:43;;;;;;;16.63;10.27;;;;;;;9.49;63.27;99457.38;4994246;28;20049;-60
2020/12/05 08:03:09;;;;;;;15.57;9.30;;;;;;;9.89;61.19;99460.41;4994701;28;20038;-60
2020/12/05 08:05:44;;;;;;;15.23;9.20;;;;;;;9.97;60.84;99461.94;4992553;28;20054;-59
2020/12/05 08:08:14;;;;;;;15.90;9.15;;;;;;;9.87;60.41;99465.16;4994551;28;20048;-59
2020/12/05 08:10:39;;;;;;;13.20;8.13;;;;;;;10.08;60.31;99460.38;4995069;28;20065;-60
2020/12/05 08:13:26;;;;;;;16.15;9.10;;;;;;;9.90;61.01;99472.72;4989632;28;20144;-60
2020/12/05 08:16:01;;;;;;;17.15;8.30;;;;;;;10.01;60.01;99470.34;5005984;28;20128;-60
2020/12/05 08:18:28;;;;;;;18.10;9.57;;;;;;;10.23;58.52;99472.53;4994463;28;20180;-59
2020/12/05 08:20:54;;;;;;;17.20;8.85;;;;;;;9.90;61.16;99480.72;4993913;28;20213;-61
2020/12/05 08:23:23;;;;;;;21.48;9.60;;;;;;;10.43;57.67;99469.59;5008245;28;20038;-60
2020/12/05 08:25:50;;;;;;;22.65;9.70;;;;;;;10.26;57.71;99464.84;5001168;28;20124;-61
2020/12/05 08:28:18;;;;;;;18.65;9.35;;;;;;;10.42;57.12;99471.47;4996567;28;20030;-59
2020/12/05 08:30:45;;;;;;;21.15;8.88;;;;;;;10.32;57.90;99455.94;4993174;28;20053;-60
2020/12/05 08:33:13;;;;;;;16.30;8.80;;;;;;;10.21;58.61;99467.38;4994280;28;20120;-59
2020/12/05 08:35:38;;;;;;;17.92;8.70;;;;;;;9.41;62.52;99483.34;4993652;28;20031;-59
2020/12/05 08:38:04;;;;;;;15.37;8.57;;;;;;;9.95;60.37;99466.69;5004459;28;20552;-60
2020/12/05 08:40:30;;;;;;;14.90;9.03;;;;;;;10.29;58.95;99463.59;5013247;28;20057;-61
2020/12/05 08:42:57;;;;;;;20.35;9.32;;;;;;;9.86;61.20;99481.41;5010243;28;20283;-61
2020/12/05 08:45:22;;;;;;;13.77;9.38;;;;;;;9.92;60.62;99482.34;5012744;28;20077;-60
2020/12/05 08:47:54;;;;;;;17.45;9.20;;;;;;;10.03;60.20;99492.28;4990555;28;20061;-59
2020/12/05 08:50:32;;;;;;;18.17;9.30;;;;;;;10.26;58.99;99493.44;5005066;28;20367;-61
2020/12/05 08:53:00;;;;;;;19.92;9.50;;;;;;;10.09;60.06;99496.72;5001117;28;20030;-60
2020/12/05 08:55:27;;;;;;;15.75;8.85;;;;;;;9.48;63.78;99515.31;5002231;28;20042;-58
2020/12/05 08:57:58;;;;;;;17.00;9.32;;;;;;;10.01;61.85;99513.88;5002070;28;20041;-61
2020/12/05 09:00:30;;;;;;;19.48;9.40;;;;;;;10.41;59.06;99525.97;5002498;28;20033;-59
2020/12/05 09:02:56;;;;;;;22.40;9.88;;;;;;;10.49;58.50;99510.63;5005128;28;20049;-59
2020/12/05 09:05:22;;;;;;;15.10;7.83;;;;;;;10.41;58.40;99517.09;5007411;28;20034;-61
2020/12/05 09:07:56;;;;;;;15.68;9.63;;;;;;;10.85;56.81;99515.03;5009671;28;20030;-60
2020/12/05 09:10:24;;;;;;;15.00;8.70;;;;;;;10.74;57.40;99513.97;5001297;28;20469;-60
2020/12/05 09:12:50;;;;;;;17.35;9.63;;;;;;;11.12;55.87;99500.41;4993164;28;20113;-60
2020/12/05 09:15:16;;;;;;;16.08;9.18;;;;;;;10.85;57.96;99517.69;4993209;28;20042;-60
2020/12/05 09:17:42;;;;;;;20.25;8.07;;;;;;;11.44;55.50;99516.94;4992599;28;20054;-60
2020/12/05 09:20:26;;;;;;;14.48;7.90;;;;;;;11.35;56.81;99512.16;4992195;28;20093;-60
2020/12/05 09:22:53;;;;;;;13.45;8.10;;;;;;;12.23;54.15;99514.81;4992755;28;20065;-61
2020/12/05 09:25:36;;;;;;;12.00;7.03;;;;;;;13.71;48.45;99534.66;4992410;28;20049;-61
2020/12/05 09:28:08;;;;;;;11.73;7.22;;;;;;;14.66;45.67;99544.34;4991510;28;20049;-61
2020/12/05 09:30:33;;;;;;;11.25;6.25;;;;;;;15.40;44.19;99541.19;4993103;28;20041;-60
2020/12/05 09:33:08;;;;;;;10.43;5.43;;;;;;;14.97;43.99;99562.69;4992129;28;20034;-60
2020/12/05 09:35:33;;;;;;;9.85;5.97;;;;;;;12.99;48.28;99564.72;4993197;28;20080;-60
2020/12/05 09:38:02;;;;;;;13.07;6.83;;;;;;;14.27;46.99;99571.34;4992336;28;20452;-61
2020/12/05 09:40:28;;;;;;;10.77;6.47;;;;;;;15.84;42.51;99564.38;4992654;28;20124;-61
2020/12/05 09:42:53;;;;;;;9.18;5.63;;;;;;;17.24;39.71;99567.44;4992316;28;20085;-61
2020/12/05 09:45:19;;;;;;;8.90;5.50;;;;;;;17.55;38.20;99568.22;5009878;28;20042;-61
2020/12/05 09:47:44;;;;;;;10.75;5.90;;;;;;;17.83;37.83;99559.75;5011415;28;20052;-61
2020/12/05 09:50:11;;;;;;;9.55;5.82;;;;;;;17.83;37.88;99568.69;4994534;28;20504;-61
2020/12/05 09:52:38;;;;;;;12.67;5.27;;;;;;;17.72;37.44;99567.09;5012050;28;20144;-55
2020/12/05 09:55:04;;;;;;;9.40;4.93;;;;;;;17.97;37.49;99568.91;5008386;28;20276;-59
2020/12/05 09:57:29;;;;;;;10.77;5.18;;;;;;;18.28;37.03;99559.91;4999499;28;20042;-61
2020/12/05 09:59:55;;;;;;;7.18;5.32;;;;;;;18.94;36.09;99576.81;4978350;28;20426;-60
2020/12/05 10:02:21;;;;;;;6.55;4.15;;;;;;;19.76;34.60;99572.56;4996397;28;20050;-61
2020/12/05 10:04:46;;;;;;;7.38;4.70;;;;;;;19.30;34.86;99559.47;4995873;28;20039;-63
2020/12/05 10:07:12;;;;;;;7.93;4.87;;;;;;;19.60;34.08;99565.69;4996539;28;20105;-61
2020/12/05 10:09:37;;;;;;;7.27;4.33;;;;;;;19.55;35.09;99565.75;4995824;28;20104;-60
2020/12/05 10:12:03;;;;;;;8.85;5.50;;;;;;;19.86;34.34;99563.53;4996169;28;20037;-61
2020/12/05 10:14:29;;;;;;;8.40;4.70;;;;;;;19.75;33.63;99570.13;4996047;28;20053;-61
2020/12/05 10:16:54;;;;;;;6.55;4.70;;;;;;;20.06;33.43;99567.09;4995557;28;20125;-60
2020/12/05 10:19:20;;;;;;;6.57;4.30;;;;;;;20.68;32.23;99568.97;4995784;28;20031;-61
2020/12/05 10:21:47;;;;;;;7.00;4.33;;;;;;;20.79;32.53;99577.78;4997928;28;20080;-62
2020/12/05 10:24:14;;;;;;;7.67;4.03;;;;;;;20.69;32.21;99570.59;5000722;28;20038;-61
2020/12/05 10:26:40;;;;;;;6.20;3.63;;;;;;;20.02;32.75;99569.59;4998890;28;20346;-59
2020/12/05 10:29:05;;;;;;;6.78;4.25;;;;;;;20.16;32.20;99564.28;5014566;28;20279;-61
2020/12/05 10:31:31;;;;;;;5.47;3.93;;;;;;;20.16;33.19;99574.31;5013184;28;20101;-60
2020/12/05 10:33:56;;;;;;;6.32;3.50;;;;;;;20.04;33.22;99574.72;5014806;28;20030;-61
2020/12/05 10:36:22;;;;;;;5.07;3.50;;;;;;;20.99;31.47;99574.00;5009095;28;20042;-64
2020/12/05 10:38:47;;;;;;;5.00;2.90;;;;;;;19.45;32.83;99582.94;4994692;28;20279;-60
2020/12/05 10:41:13;;;;;;;4.97;2.83;;;;;;;19.66;32.89;99577.31;4996021;28;20121;-61
2020/12/05 10:43:39;;;;;;;4.68;3.03;;;;;;;18.77;34.22;99588.84;4994727;28;20030;-60
2020/12/05 10:46:05;;;;;;;5.97;3.70;;;;;;;18.40;34.41;99582.00;4995421;28;20473;-62
2020/12/05 10:48:30;;;;;;;6.67;3.27;;;;;;;18.68;34.53;99587.81;4995310;28;20420;-64
2020/12/05 10:50:59;;;;;;;5.47;2.70;;;;;;;18.38;34.30;99586.91;4996249;28;20481;-61
2020/12/05 10:53:26;;;;;;;7.07;2.73;;;;;;;18.39;34.35;99585.81;4994999;28;20042;-60
2020/12/05 10:55:52;;;;;;;3.90;2.65;;;;;;;18.41;34.60;99591.75;4977700;28;20306;-60
2020/12/05 10:58:18;;;;;;;;;;;;;;;18.54;35.01;99597.66;4995785;28;20030;-60
2020/12/05 11:00:43;;;;;;;6.87;2.57;;;;;;;18.21;34.56;99595.38;5001498;28;19976;-60
2020/12/05 11:03:08;;;;;;;6.00;2.80;;;;;;;19.98;32.72;99584.03;5014772;28;20065;-62
2020/12/05 11:05:34;;;;;;;6.17;3.53;;;;;;;20.40;31.08;99582.41;5014682;28;20496;-61
2020/12/05 11:07:59;;;;;;;4.33;2.97;;;;;;;19.53;31.77;99595.06;5013298;28;20477;-60
2020/12/05 11:10:25;;;;;;;8.77;3.03;;;;;;;19.71;31.73;99604.38;5001260;28;20302;-60
2020/12/05 11:12:50;;;;;;;7.97;2.83;;;;;;;18.85;32.61;99608.28;4977102;28;20064;-60
2020/12/05 11:15:16;;;;;;;5.07;3.13;;;;;;;18.01;34.28;99613.28;4995475;28;20038;-61
2020/12/05 11:17:41;;;;;;;6.80;3.43;;;;;;;18.50;33.75;99629.88;4995206;28;20042;-60
2020/12/05 11:20:07;;;;;;;5.60;3.10;;;;;;;19.26;32.04;99618.84;4994860;28;20272;-61
2020/12/05 11:22:32;;;;;;;7.97;3.30;;;;;;;19.23;32.60;99619.44;4977806;28;20062;-60
2020/12/05 11:24:57;;;;;;;3.77;2.40;;;;;;;18.77;33.13;99632.16;4994971;28;20057;-62
2020/12/05 11:27:23;;;;;;;6.80;3.37;;;;;;;19.35;32.71;99621.78;4996452;28;20113;-60
2020/12/05 11:29:48;;;;;;;7.57;3.50;;;;;;;20.47;31.18;99634.44;4998651;28;20129;-62
2020/12/05 11:32:14;;;;;;;10.27;2.90;;;;;;;19.27;32.17;99630.53;5001303;28;20042;-61
2020/12/05 11:34:39;;;;;;;5.47;2.97;;;;;;;17.70;34.38;99644.97;4977423;28;20046;-62
2020/12/05 11:37:05;;;;;;;5.27;3.30;;;;;;;16.35;37.10;99644.72;4996089;28;20030;-60
2020/12/05 11:39:30;;;;;;;6.63;3.10;;;;;;;15.84;38.72;99654.13;5013680;28;20389;-61